Time;durP1;ratioP1;P1;durP2;ratioP2;P2;SDS_P1;SDS_P2;PMS_P1;PMS_P2;Temp;Humidity;BMP_temperature;BMP_pressure;BME280_temperature;BME280_humidity;BME280_pressure;Samples;Min_cycle;Max_cycle;Signal;HPM_P1;HPM_P2
2024/03/25 05:05:35;;;;;;;0.50;0.50;;;5.20;99.90;;;;;;5948962;23;20195;-59
2024/03/25 05:08:03;;;;;;;0.50;0.50;;;5.10;99.90;;;;;;4923591;29;20205;-59
2024/03/25 05:10:29;;;;;;;0.40;0.40;;;5.10;99.90;;;;;;4919589;29;20289;-61
2024/03/25 05:12:55;;;;;;;0.40;0.40;;;5.10;99.90;;;;;;4919942;29;20176;-61
2024/03/25 05:15:21;;;;;;;0.40;0.40;;;5.10;99.90;;;;;;4917392;29;20212;-59
2024/03/25 05:17:46;;;;;;;0.60;0.60;;;5.10;99.90;;;;;;4899298;29;20276;-58
2024/03/25 05:20:12;;;;;;;0.40;0.40;;;5.10;99.90;;;;;;4900185;29;20705;-58
2024/03/25 05:22:38;;;;;;;0.87;0.87;;;5.10;99.90;;;;;;4899906;29;20184;-58
2024/03/25 05:25:03;;;;;;;0.30;0.30;;;5.10;99.90;;;;;;4900801;29;20209;-60
2024/03/25 05:27:29;;;;;;;0.40;0.40;;;5.00;99.90;;;;;;4901432;29;20309;-59
2024/03/25 05:29:55;;;;;;;0.40;0.40;;;5.00;99.90;;;;;;4903023;29;20457;-59
2024/03/25 05:32:21;;;;;;;0.40;0.40;;;5.00;99.90;;;;;;4907627;29;20899;-59
2024/03/25 05:34:48;;;;;;;0.45;0.45;;;5.00;99.90;;;;;;4899039;29;20193;-61
2024/03/25 05:37:14;;;;;;;0.40;0.40;;;5.00;99.90;;;;;;4897941;29;20203;-59
2024/03/25 05:39:40;;;;;;;0.50;0.50;;;5.00;99.90;;;;;;4902075;29;20181;-59
2024/03/25 05:42:05;;;;;;;0.33;0.33;;;5.00;99.90;;;;;;4912770;29;20209;-58
2024/03/25 05:44:31;;;;;;;0.40;0.40;;;5.10;99.90;;;;;;4917150;29;20469;-60
2024/03/25 05:46:57;;;;;;;0.40;0.40;;;5.10;99.90;;;;;;4917359;29;20194;-61
2024/03/25 05:49:23;;;;;;;0.40;0.40;;;5.10;99.90;;;;;;4917486;29;20211;-61
2024/03/25 05:51:48;;;;;;;0.40;0.40;;;5.20;99.90;;;;;;4916556;29;20174;-59
2024/03/25 05:54:14;;;;;;;0.50;0.50;;;5.30;99.90;;;;;;4912532;29;20430;-60
2024/03/25 05:56:40;;;;;;;0.40;0.40;;;5.30;99.90;;;;;;4909603;29;20216;-61
2024/03/25 05:59:06;;;;;;;0.30;0.30;;;5.40;99.90;;;;;;4900175;29;20187;-59
2024/03/25 06:01:31;;;;;;;0.40;0.40;;;5.50;99.90;;;;;;4898707;29;20184;-60
2024/03/25 06:03:57;;;;;;;0.40;0.40;;;5.60;99.90;;;;;;4883299;29;20179;-59
2024/03/25 06:06:23;;;;;;;0.30;0.30;;;5.70;99.90;;;;;;4879936;29;20197;-60
2024/03/25 06:08:50;;;;;;;0.37;0.37;;;5.80;99.90;;;;;;4883683;29;20266;-61
2024/03/25 06:11:16;;;;;;;0.47;0.47;;;5.90;99.90;;;;;;4886853;29;20733;-59
2024/03/25 06:13:41;;;;;;;0.63;0.63;;;6.00;99.90;;;;;;4882756;29;20168;-59
2024/03/25 06:16:07;;;;;;;0.40;0.40;;;6.20;99.90;;;;;;4895995;29;20195;-59
2024/03/25 06:18:32;;;;;;;0.30;0.30;;;6.20;99.90;;;;;;4899590;29;20265;-62
2024/03/25 06:20:58;;;;;;;0.30;0.30;;;6.30;99.90;;;;;;4896789;29;20174;-61
2024/03/25 06:23:27;;;;;;;0.40;0.40;;;6.30;99.90;;;;;;4897635;29;20182;-59
2024/03/25 06:25:55;;;;;;;0.35;0.35;;;6.40;99.90;;;;;;4896202;29;20235;-62
2024/03/25 06:28:21;;;;;;;0.30;0.30;;;6.50;99.90;;;;;;4897811;29;20605;-58
2024/03/25 06:36:19;;;;;;;0.40;0.40;;;7.60;99.90;;;;;;4895467;29;20207;-61
2024/03/25 06:38:46;;;;;;;0.35;0.35;;;8.20;99.90;;;;;;4882672;29;20264;-63
2024/03/25 06:41:12;;;;;;;0.40;0.40;;;8.80;99.90;;;;;;4882739;29;20665;-62
2024/03/25 06:43:38;;;;;;;0.30;0.30;;;9.40;99.90;;;;;;4881709;29;20418;-70
2024/03/25 06:46:07;;;;;;;0.30;0.30;;;9.70;99.90;;;;;;4881387;29;20437;-63
2024/03/25 06:48:34;;;;;;;0.30;0.30;;;9.70;99.90;;;;;;4881737;29;20518;-61
2024/03/25 06:51:02;;;;;;;0.40;0.40;;;9.60;99.90;;;;;;4885687;29;20544;-62
2024/03/25 06:53:28;;;;;;;0.30;0.30;;;10.00;99.90;;;;;;4900795;29;20434;-60
2024/03/25 06:55:58;;;;;;;0.40;0.40;;;10.40;99.90;;;;;;4900142;29;20938;-62
2024/03/25 06:58:25;;;;;;;0.40;0.40;;;10.60;99.90;;;;;;4900529;29;20171;-62
2024/03/25 07:00:51;;;;;;;0.30;0.30;;;10.80;99.90;;;;;;4900502;29;20412;-61
2024/03/25 07:03:22;;;;;;;0.30;0.30;;;11.10;99.90;;;;;;4899844;29;20437;-60
2024/03/25 07:05:48;;;;;;;0.30;0.30;;;11.60;99.90;;;;;;4899053;29;20465;-64
2024/03/25 07:08:15;;;;;;;0.40;0.40;;;12.10;99.90;;;;;;4900144;29;20441;-61
2024/03/25 07:10:44;;;;;;;0.30;0.30;;;12.60;99.90;;;;;;4900134;29;20443;-63
2024/03/25 07:13:10;;;;;;;0.30;0.30;;;13.20;99.90;;;;;;4900490;29;20517;-61
2024/03/25 07:15:35;;;;;;;0.30;0.30;;;13.90;98.30;;;;;;4894463;29;20514;-61
2024/03/25 07:18:01;;;;;;;0.30;0.30;;;14.70;97.10;;;;;;4888214;29;20190;-64
2024/03/25 07:20:26;;;;;;;0.30;0.30;;;15.50;95.90;;;;;;4882909;29;20228;-60
2024/03/25 07:22:55;;;;;;;0.40;0.40;;;16.30;94.00;;;;;;4900019;29;20573;-67
2024/03/25 07:25:25;;;;;;;0.30;0.30;;;17.00;93.00;;;;;;4899155;29;20183;-72
2024/03/25 07:27:52;;;;;;;0.30;0.30;;;17.50;90.90;;;;;;4897906;29;20499;-70
2024/03/25 07:30:18;;;;;;;0.30;0.30;;;17.90;90.10;;;;;;4899699;29;20494;-62
2024/03/25 07:32:46;;;;;;;0.30;0.30;;;18.20;89.20;;;;;;4899437;29;20417;-64
2024/03/25 07:35:12;;;;;;;0.60;0.60;;;18.10;86.70;;;;;;4899005;29;20175;-64
2024/03/25 07:37:38;;;;;;;0.30;0.30;;;17.50;87.70;;;;;;4899598;29;20401;-65
2024/03/25 07:40:04;;;;;;;0.30;0.27;;;17.30;89.80;;;;;;4899774;29;20546;-59
2024/03/25 07:42:30;;;;;;;0.30;0.30;;;17.30;88.90;;;;;;4899730;29;20454;-65
2024/03/25 07:44:56;;;;;;;0.30;0.30;;;17.50;88.30;;;;;;4898438;29;20428;-60
2024/03/25 07:47:21;;;;;;;0.30;0.30;;;17.70;87.50;;;;;;4898080;29;20670;-63
2024/03/25 07:49:47;;;;;;;0.30;0.30;;;17.90;86.70;;;;;;4899639;29;20458;-62
2024/03/25 07:52:13;;;;;;;0.40;0.40;;;18.00;88.00;;;;;;4899131;29;20214;-64
2024/03/25 07:54:39;;;;;;;0.30;0.20;;;18.00;84.10;;;;;;4899200;29;20186;-63
2024/03/25 07:57:05;;;;;;;0.30;0.30;;;17.30;83.50;;;;;;4897967;29;20476;-64
2024/03/25 07:59:30;;;;;;;0.30;0.30;;;17.00;87.50;;;;;;4891704;29;20722;-64
2024/03/25 08:02:00;;;;;;;0.30;0.30;;;17.30;87.70;;;;;;4880808;29;20180;-63
2024/03/25 08:04:25;;;;;;;0.30;0.30;;;18.10;86.20;;;;;;4884314;29;20182;-64
2024/03/25 08:06:51;;;;;;;0.30;0.30;;;18.90;85.60;;;;;;4880154;29;20451;-61
2024/03/25 08:09:17;;;;;;;0.77;0.77;;;20.00;83.40;;;;;;4884619;29;20183;-66
2024/03/25 08:11:46;;;;;;;0.30;0.30;;;20.90;79.20;;;;;;4889567;29;20219;-63
2024/03/25 08:14:11;;;;;;;0.30;0.20;;;20.50;73.80;;;;;;4879785;29;20424;-65
2024/03/25 08:16:37;;;;;;;0.50;0.50;;;20.30;74.80;;;;;;4879069;29;20415;-64
2024/03/25 08:19:03;;;;;;;0.50;0.47;;;20.20;75.00;;;;;;4879404;29;20194;-64
2024/03/25 08:21:28;;;;;;;0.40;0.40;;;20.20;74.10;;;;;;4879238;29;20470;-63
2024/03/25 08:23:54;;;;;;;0.30;0.30;;;20.40;73.00;;;;;;4879815;29;20190;-60
2024/03/25 08:26:19;;;;;;;0.60;0.60;;;20.20;71.40;;;;;;4878019;29;20699;-62
2024/03/25 08:28:45;;;;;;;0.33;0.33;;;19.30;70.90;;;;;;4877998;29;20703;-61
2024/03/25 08:31:11;;;;;;;0.30;0.30;;;18.00;72.00;;;;;;4877866;29;20215;-65
2024/03/25 08:33:36;;;;;;;0.30;0.30;;;17.30;75.80;;;;;;4876634;29;20207;-59
2024/03/25 08:36:03;;;;;;;0.30;0.30;;;17.30;76.60;;;;;;4877418;29;20248;-64
2024/03/25 08:38:29;;;;;;;0.30;0.30;;;18.00;77.80;;;;;;4878056;29;20645;-61
2024/03/25 08:40:54;;;;;;;0.30;0.30;;;19.10;76.60;;;;;;4879567;29;20395;-66
2024/03/25 08:43:20;;;;;;;0.30;0.30;;;20.20;74.00;;;;;;4880063;29;20187;-66
2024/03/25 08:45:46;;;;;;;0.30;0.30;;;21.00;69.30;;;;;;4879468;29;20247;-64
2024/03/25 08:48:12;;;;;;;0.37;0.37;;;21.40;68.90;;;;;;4879915;29;20191;-64
2024/03/25 08:50:37;;;;;;;0.30;0.30;;;21.90;65.30;;;;;;4878316;29;20464;-67
2024/03/25 08:53:04;;;;;;;0.30;0.20;;;22.00;64.20;;;;;;4879943;29;20206;-65
2024/03/25 08:55:30;;;;;;;0.30;0.20;;;22.00;60.50;;;;;;4879341;29;20183;-61
2024/03/25 08:57:58;;;;;;;0.30;0.30;;;21.90;62.30;;;;;;4879464;29;20472;-63
2024/03/25 09:00:27;;;;;;;0.30;0.30;;;21.00;62.50;;;;;;4879667;29;20502;-61
2024/03/25 09:02:53;;;;;;;0.30;0.30;;;20.70;62.50;;;;;;4879658;29;20413;-63
2024/03/25 09:05:19;;;;;;;0.30;0.20;;;21.00;62.70;;;;;;4879384;29;20416;-65
2024/03/25 09:07:49;;;;;;;0.30;0.30;;;21.40;63.30;;;;;;4879417;29;20455;-66
2024/03/25 09:12:59;;;;;;;0.73;0.50;;;22.50;61.30;;;;;;4879725;29;20556;-62
2024/03/25 09:15:25;;;;;;;0.30;0.30;;;22.10;60.50;;;;;;4878993;29;20477;-64
2024/03/25 09:17:51;;;;;;;0.40;0.40;;;22.20;60.60;;;;;;4878238;29;20520;-63
2024/03/25 09:20:17;;;;;;;0.30;0.30;;;21.80;60.90;;;;;;4879366;29;20684;-64
2024/03/25 09:22:44;;;;;;;0.30;0.20;;;22.50;60.30;;;;;;4879505;29;20539;-63
2024/03/25 09:25:09;;;;;;;0.30;0.30;;;22.90;60.60;;;;;;4879037;29;20877;-62
2024/03/25 09:27:35;;;;;;;0.30;0.30;;;23.20;59.50;;;;;;4879438;29;20504;-66
2024/03/25 09:30:00;;;;;;;0.30;0.20;;;22.70;59.20;;;;;;4879268;29;20187;-62
2024/03/25 09:32:26;;;;;;;0.93;0.93;;;22.70;58.50;;;;;;4879615;29;20550;-65
2024/03/25 09:34:52;;;;;;;0.40;0.40;;;22.30;58.70;;;;;;4879062;29;20240;-62
2024/03/25 09:37:18;;;;;;;0.30;0.30;;;21.60;60.40;;;;;;4879171;29;20191;-66
2024/03/25 09:39:43;;;;;;;0.30;0.30;;;21.60;62.00;;;;;;4879210;29;20194;-63
2024/03/25 09:42:15;;;;;;;0.30;0.30;;;21.70;60.10;;;;;;4879278;29;20413;-63
2024/03/25 09:44:41;;;;;;;0.30;0.30;;;21.10;59.50;;;;;;4878974;29;20334;-65
2024/03/25 09:47:09;;;;;;;0.30;0.20;;;21.00;61.00;;;;;;4879214;29;20518;-63
2024/03/25 09:49:36;;;;;;;0.30;0.20;;;20.80;60.70;;;;;;4879149;29;20188;-64
2024/03/25 09:52:02;;;;;;;0.30;0.20;;;20.60;60.80;;;;;;4879096;29;20439;-61
2024/03/25 09:54:28;;;;;;;0.40;0.40;;;20.80;61.10;;;;;;4878995;29;20870;-62
2024/03/25 09:56:54;;;;;;;0.30;0.30;;;21.10;62.90;;;;;;4878930;29;20243;-60
2024/03/25 09:59:20;;;;;;;0.40;0.40;;;21.60;61.40;;;;;;4878968;29;20184;-65
2024/03/25 10:01:46;;;;;;;0.30;0.30;;;21.90;59.30;;;;;;4879158;29;20823;-63
2024/03/25 10:04:11;;;;;;;0.40;0.40;;;21.90;59.10;;;;;;4879019;29;20423;-65
2024/03/25 10:06:39;;;;;;;0.30;0.30;;;22.00;58.20;;;;;;4878489;29;20192;-60
2024/03/25 10:09:06;;;;;;;0.30;0.30;;;21.90;58.60;;;;;;4879301;29;20191;-67
2024/03/25 10:11:35;;;;;;;0.30;0.20;;;21.50;58.40;;;;;;4881118;29;20868;-65
2024/03/25 10:14:01;;;;;;;0.40;0.40;;;21.10;59.20;;;;;;4882609;29;20418;-64
2024/03/25 10:16:27;;;;;;;0.30;0.20;;;20.50;58.80;;;;;;4882011;29;20538;-63
2024/03/25 10:18:53;;;;;;;0.30;0.20;;;20.10;59.30;;;;;;4882486;29;20394;-62
2024/03/25 10:21:22;;;;;;;0.30;0.30;;;20.00;59.80;;;;;;4882594;29;20853;-66
2024/03/25 10:23:49;;;;;;;0.30;0.20;;;20.00;60.50;;;;;;4882336;29;20414;-62
2024/03/25 10:26:26;;;;;;;0.30;0.30;;;20.30;61.00;;;;;;4881924;29;20807;-62
2024/03/25 10:29:01;;;;;;;0.30;0.20;;;20.50;60.40;;;;;;4882257;29;20502;-60
2024/03/25 10:31:27;;;;;;;0.30;0.30;;;20.00;58.50;;;;;;4882333;29;20398;-61
2024/03/25 10:33:53;;;;;;;0.30;0.30;;;19.80;59.20;;;;;;4882508;29;20978;-63
2024/03/25 10:36:20;;;;;;;0.40;0.30;;;19.80;58.50;;;;;;4882170;29;20260;-62
2024/03/25 10:38:48;;;;;;;0.40;0.40;;;20.10;57.70;;;;;;4882251;29;20204;-62
2024/03/25 10:41:17;;;;;;;0.30;0.30;;;20.70;56.90;;;;;;4881915;29;20468;-63
2024/03/25 10:43:46;;;;;;;0.30;0.20;;;21.40;56.30;;;;;;4882191;29;20496;-62
2024/03/25 10:46:17;;;;;;;0.30;0.20;;;21.90;55.60;;;;;;4881879;29;20459;-64
2024/03/25 10:49:01;;;;;;;0.30;0.30;;;22.00;56.10;;;;;;4882078;29;20412;-62
2024/03/25 10:51:28;;;;;;;0.30;0.30;;;22.00;54.80;;;;;;4881992;29;20397;-60
2024/03/25 10:53:55;;;;;;;0.30;0.30;;;21.40;55.30;;;;;;4881896;29;20500;-60
2024/03/25 10:56:23;;;;;;;0.30;0.20;;;21.10;56.20;;;;;;4881620;29;20436;-65
2024/03/25 10:58:49;;;;;;;0.30;0.30;;;21.10;57.10;;;;;;4881993;29;20907;-62
2024/03/25 11:01:19;;;;;;;0.30;0.20;;;20.90;58.50;;;;;;4881869;29;20440;-63
2024/03/25 11:03:47;;;;;;;0.30;0.30;;;20.90;57.70;;;;;;4881891;29;20393;-64
2024/03/25 11:06:14;;;;;;;0.30;0.30;;;20.80;57.40;;;;;;4881671;29;20450;-64
2024/03/25 11:08:41;;;;;;;0.30;0.20;;;20.50;59.20;;;;;;4881639;29;20913;-63
2024/03/25 11:11:07;;;;;;;0.30;0.30;;;20.60;57.80;;;;;;4881901;29;20424;-66
2024/03/25 11:13:33;;;;;;;0.30;0.20;;;20.50;58.60;;;;;;4881790;29;20439;-60
2024/03/25 11:16:01;;;;;;;0.30;0.20;;;20.10;59.20;;;;;;4880011;29;20210;-64
2024/03/25 11:18:27;;;;;;;0.30;0.20;;;19.20;57.90;;;;;;4881663;29;20754;-60
2024/03/25 11:21:04;;;;;;;0.30;0.30;;;18.50;58.50;;;;;;4881471;29;20480;-63
2024/03/25 11:23:42;;;;;;;0.50;0.30;;;17.90;58.50;;;;;;4881722;29;20391;-60
2024/03/25 11:26:26;;;;;;;0.30;0.20;;;17.40;61.20;;;;;;4881258;29;20462;-63
2024/03/25 11:28:54;;;;;;;0.30;0.30;;;16.80;62.00;;;;;;4881512;29;20484;-63
2024/03/25 11:31:21;;;;;;;0.30;0.30;;;16.10;65.60;;;;;;4881346;29;20451;-63
2024/03/25 11:33:47;;;;;;;0.30;0.30;;;15.40;67.90;;;;;;4881532;29;20456;-64
2024/03/25 11:36:13;;;;;;;0.30;0.30;;;15.20;66.20;;;;;;4881134;29;20436;-60
2024/03/25 11:38:41;;;;;;;0.30;0.30;;;15.00;65.80;;;;;;4881478;29;20393;-60
2024/03/25 11:41:07;;;;;;;0.50;0.50;;;14.70;66.10;;;;;;4879847;29;20217;-63
2024/03/25 11:43:33;;;;;;;0.30;0.30;;;14.60;66.20;;;;;;4881186;29;20413;-62
2024/03/25 11:45:58;;;;;;;1.53;0.67;;;14.40;68.10;;;;;;4880915;29;20288;-64
2024/03/25 11:48:24;;;;;;;0.30;0.30;;;14.10;69.60;;;;;;4881312;29;20220;-60
2024/03/25 11:50:50;;;;;;;0.30;0.30;;;14.10;70.00;;;;;;4881204;29;20176;-63
2024/03/25 11:53:15;;;;;;;0.30;0.30;;;14.30;71.00;;;;;;4881530;29;20301;-64
2024/03/25 11:55:46;;;;;;;0.30;0.30;;;14.30;70.30;;;;;;4880613;29;20200;-64
2024/03/25 11:58:11;;;;;;;0.30;0.30;;;14.30;67.20;;;;;;4881058;29;20186;-61
2024/03/25 12:00:49;;;;;;;0.30;0.30;;;14.00;67.00;;;;;;4880742;29;20555;-63
2024/03/25 12:03:18;;;;;;;0.30;0.30;;;13.80;67.00;;;;;;4880974;29;20528;-60
2024/03/25 12:05:44;;;;;;;0.50;0.50;;;13.70;67.90;;;;;;4879139;29;20454;-61
2024/03/25 12:08:11;;;;;;;0.30;0.30;;;13.60;67.50;;;;;;4880508;29;20439;-60
2024/03/25 12:13:23;;;;;;;0.30;0.30;;;13.50;67.70;;;;;;4881064;29;20415;-59
2024/03/25 12:15:49;;;;;;;0.30;0.30;;;13.40;69.30;;;;;;4880073;29;20435;-62
2024/03/25 12:18:15;;;;;;;0.30;0.30;;;13.30;68.70;;;;;;4880391;29;20428;-60
2024/03/25 12:20:41;;;;;;;0.30;0.30;;;13.00;71.10;;;;;;4880229;29;20965;-65
2024/03/25 12:23:07;;;;;;;0.30;0.30;;;12.90;71.20;;;;;;4880503;29;20436;-61
2024/03/25 12:25:33;;;;;;;0.30;0.30;;;12.80;70.60;;;;;;4880027;29;20203;-64
2024/03/25 12:27:59;;;;;;;0.30;0.30;;;12.80;68.20;;;;;;4880543;29;20760;-60
2024/03/25 12:30:25;;;;;;;0.30;0.30;;;12.80;68.60;;;;;;4880459;29;20436;-61
2024/03/25 12:32:51;;;;;;;0.30;0.30;;;12.80;69.40;;;;;;4879545;29;20194;-61
2024/03/25 12:35:18;;;;;;;0.30;0.30;;;12.90;69.90;;;;;;4879775;29;20418;-59
2024/03/25 12:37:45;;;;;;;0.30;0.30;;;12.80;70.60;;;;;;4880000;29;20713;-63
2024/03/25 12:40:25;;;;;;;0.30;0.30;;;12.80;70.20;;;;;;4878879;29;20586;-60
2024/03/25 12:42:54;;;;;;;0.30;0.30;;;12.80;69.90;;;;;;4880245;29;20423;-63
2024/03/25 12:45:23;;;;;;;1.23;0.73;;;12.70;70.30;;;;;;4879700;29;20391;-62
2024/03/25 12:47:52;;;;;;;0.30;0.30;;;12.70;68.80;;;;;;4880074;29;20423;-63
2024/03/25 12:50:18;;;;;;;0.30;0.30;;;12.60;70.50;;;;;;4879837;29;20462;-61
2024/03/25 12:52:44;;;;;;;0.30;0.30;;;12.60;69.10;;;;;;4880082;29;20419;-60
2024/03/25 12:55:09;;;;;;;0.30;0.20;;;12.70;68.70;;;;;;4879740;29;20499;-63
2024/03/25 12:57:35;;;;;;;0.30;0.30;;;12.70;69.70;;;;;;4879679;29;20194;-62
2024/03/25 13:00:03;;;;;;;0.30;0.30;;;12.70;68.80;;;;;;4879754;29;20234;-61
2024/03/25 13:02:29;;;;;;;0.40;0.40;;;12.60;68.90;;;;;;4878461;29;20210;-63
2024/03/25 13:04:54;;;;;;;0.50;0.50;;;12.50;70.00;;;;;;4879283;29;20456;-62
2024/03/25 13:07:20;;;;;;;0.30;0.30;;;12.50;70.70;;;;;;4879604;29;20213;-61
2024/03/25 13:09:45;;;;;;;1.00;1.00;;;12.50;71.70;;;;;;4879750;29;20172;-62
2024/03/25 13:12:11;;;;;;;0.30;0.30;;;12.50;70.40;;;;;;4879606;29;20197;-65
2024/03/25 13:14:37;;;;;;;0.30;0.30;;;12.40;70.60;;;;;;4879368;29;20185;-60
2024/03/25 13:17:02;;;;;;;0.30;0.30;;;12.30;69.80;;;;;;4879460;29;20615;-61
2024/03/25 13:19:29;;;;;;;0.30;0.30;;;12.30;71.00;;;;;;4879340;29;20269;-62
2024/03/25 13:21:56;;;;;;;0.30;0.30;;;12.30;71.00;;;;;;4879389;29;20572;-62
2024/03/25 13:24:21;;;;;;;0.30;0.30;;;12.40;71.20;;;;;;4879637;29;20462;-64
2024/03/25 13:26:47;;;;;;;0.30;0.30;;;12.50;70.80;;;;;;4879131;29;20458;-61
2024/03/25 13:29:12;;;;;;;0.40;0.40;;;12.50;69.80;;;;;;4879392;29;20713;-65
2024/03/25 13:31:38;;;;;;;0.30;0.30;;;12.50;68.70;;;;;;4879538;29;20185;-63
2024/03/25 13:34:04;;;;;;;0.30;0.20;;;12.50;69.70;;;;;;4879337;29;20243;-63
2024/03/25 13:36:29;;;;;;;0.30;0.30;;;12.50;69.70;;;;;;4879249;29;20562;-60
2024/03/25 13:38:55;;;;;;;0.30;0.20;;;12.60;69.50;;;;;;4879359;29;20572;-63
2024/03/25 13:41:23;;;;;;;0.30;0.30;;;12.50;69.90;;;;;;4879224;29;20212;-60
2024/03/25 13:43:49;;;;;;;0.40;0.40;;;12.50;70.90;;;;;;4879389;29;20182;-61
2024/03/25 13:46:15;;;;;;;0.30;0.30;;;12.50;70.40;;;;;;4881055;29;20443;-63
2024/03/25 13:48:41;;;;;;;0.30;0.30;;;12.40;70.40;;;;;;4883079;29;20984;-62
2024/03/25 13:51:06;;;;;;;0.30;0.30;;;12.40;71.30;;;;;;4883330;29;20181;-62
2024/03/25 13:53:32;;;;;;;0.40;0.40;;;12.40;71.70;;;;;;4883011;29;20186;-60
2024/03/25 13:55:58;;;;;;;0.30;0.30;;;12.50;71.50;;;;;;4882758;29;20538;-63
2024/03/25 13:58:23;;;;;;;0.30;0.30;;;12.40;71.90;;;;;;4882926;29;20422;-58
2024/03/25 14:00:50;;;;;;;0.30;0.30;;;12.50;71.60;;;;;;4883059;29;20202;-62
2024/03/25 14:03:15;;;;;;;0.30;0.30;;;12.50;69.50;;;;;;4881774;29;20179;-62
2024/03/25 14:05:41;;;;;;;0.30;0.30;;;12.50;69.30;;;;;;4882606;29;20801;-64
2024/03/25 14:08:07;;;;;;;0.67;0.67;;;12.50;69.80;;;;;;4882549;29;20226;-60
2024/03/25 14:10:32;;;;;;;0.30;0.30;;;12.50;69.70;;;;;;4882496;29;20423;-63
2024/03/25 14:12:58;;;;;;;0.30;0.20;;;12.60;70.40;;;;;;4882753;29;20193;-60
2024/03/25 14:15:23;;;;;;;0.30;0.30;;;12.70;69.90;;;;;;4882334;29;20196;-60
2024/03/25 14:17:49;;;;;;;0.30;0.30;;;12.70;69.10;;;;;;4882728;29;20183;-61
2024/03/25 14:20:15;;;;;;;0.33;0.33;;;12.60;69.70;;;;;;4882645;29;20214;-60
2024/03/25 14:22:41;;;;;;;0.30;0.30;;;12.60;69.80;;;;;;4882562;29;20183;-63
2024/03/25 14:25:06;;;;;;;0.30;0.30;;;12.60;71.30;;;;;;4882185;29;20189;-62
2024/03/25 14:27:32;;;;;;;0.33;0.33;;;12.60;69.50;;;;;;4882563;29;20413;-62
2024/03/25 14:29:58;;;;;;;0.30;0.30;;;12.60;69.00;;;;;;4882610;29;20486;-60
2024/03/25 14:32:24;;;;;;;0.30;0.30;;;12.60;69.10;;;;;;4881195;29;20208;-63
2024/03/25 14:34:49;;;;;;;0.30;0.30;;;12.60;69.90;;;;;;4882872;29;20214;-61
2024/03/25 14:37:15;;;;;;;0.30;0.30;;;12.50;69.30;;;;;;4882240;29;20432;-61
2024/03/25 14:39:41;;;;;;;0.30;0.30;;;12.50;69.90;;;;;;4882235;29;20638;-63
2024/03/25 14:42:11;;;;;;;0.30;0.30;;;12.60;70.60;;;;;;4889333;29;20233;-60
2024/03/25 14:44:37;;;;;;;0.40;0.40;;;12.60;69.90;;;;;;4881287;29;20440;-61
2024/03/25 14:47:03;;;;;;;0.30;0.30;;;12.60;70.40;;;;;;4881593;29;20847;-60
2024/03/25 14:49:28;;;;;;;0.30;0.30;;;12.70;69.30;;;;;;4882152;29;20407;-61
2024/03/25 14:51:54;;;;;;;0.30;0.30;;;12.70;69.60;;;;;;4882379;29;20419;-60
2024/03/25 14:54:19;;;;;;;0.30;0.30;;;12.70;68.70;;;;;;4881929;29;20190;-63
2024/03/25 14:56:46;;;;;;;0.30;0.30;;;12.70;69.90;;;;;;4880574;29;20338;-62
2024/03/25 14:59:12;;;;;;;0.30;0.30;;;12.70;70.20;;;;;;4881958;29;20186;-62
2024/03/25 15:01:37;;;;;;;0.30;0.30;;;12.80;69.80;;;;;;4881579;29;20466;-60
2024/03/25 15:04:04;;;;;;;0.30;0.30;;;12.80;69.70;;;;;;4881925;29;20225;-62
2024/03/25 15:06:30;;;;;;;0.33;0.33;;;12.80;69.50;;;;;;4881366;29;20206;-62
2024/03/25 15:08:59;;;;;;;0.30;0.30;;;12.80;69.90;;;;;;4881924;29;20949;-63
2024/03/25 15:11:25;;;;;;;0.30;0.30;;;12.80;69.90;;;;;;4881656;29;20913;-60
2024/03/25 15:13:52;;;;;;;0.40;0.40;;;12.80;69.60;;;;;;4881681;29;20442;-63
2024/03/25 15:16:18;;;;;;;0.30;0.30;;;12.70;70.10;;;;;;4881384;29;20538;-61
2024/03/25 15:18:43;;;;;;;0.30;0.30;;;12.70;69.90;;;;;;4881518;29;20502;-61
2024/03/25 15:21:09;;;;;;;0.30;0.20;;;12.60;70.60;;;;;;4880226;29;20474;-61
2024/03/25 15:23:35;;;;;;;0.30;0.30;;;12.70;70.10;;;;;;4881620;29;20190;-61
2024/03/25 15:26:00;;;;;;;0.30;0.30;;;12.70;69.50;;;;;;4881052;29;20294;-63
2024/03/25 15:28:28;;;;;;;0.30;0.30;;;12.70;69.00;;;;;;4881347;29;20182;-59
2024/03/25 15:30:55;;;;;;;0.30;0.30;;;12.70;68.60;;;;;;4881207;29;20230;-63
2024/03/25 15:33:22;;;;;;;0.40;0.40;;;12.70;68.10;;;;;;4881407;29;20451;-60
2024/03/25 15:35:48;;;;;;;0.30;0.30;;;12.60;68.00;;;;;;4881064;29;20447;-64
2024/03/25 15:38:14;;;;;;;0.30;0.30;;;12.60;67.90;;;;;;4880013;29;20437;-62
2024/03/25 15:40:41;;;;;;;0.30;0.30;;;12.60;67.90;;;;;;4881104;29;20226;-62
2024/03/25 15:43:06;;;;;;;0.30;0.30;;;12.60;68.00;;;;;;4881138;29;20407;-60
2024/03/25 15:45:32;;;;;;;0.30;0.30;;;12.60;67.20;;;;;;4880679;29;20918;-63
2024/03/25 15:47:58;;;;;;;0.30;0.30;;;12.60;66.90;;;;;;4881168;29;20182;-61
2024/03/25 15:50:24;;;;;;;0.30;0.30;;;12.60;66.60;;;;;;4880866;29;20191;-60
2024/03/25 15:52:49;;;;;;;0.40;0.40;;;12.70;66.60;;;;;;4881069;29;20519;-63
2024/03/25 15:55:15;;;;;;;0.50;0.50;;;12.70;67.10;;;;;;4880647;29;20553;-62
2024/03/25 15:57:41;;;;;;;0.30;0.30;;;12.70;67.20;;;;;;4880965;29;20650;-64
2024/03/25 16:00:07;;;;;;;0.30;0.30;;;12.70;66.40;;;;;;4879468;29;20569;-61
2024/03/25 16:02:34;;;;;;;0.30;0.30;;;12.60;66.70;;;;;;4880801;29;20989;-62
2024/03/25 16:04:59;;;;;;;0.30;0.30;;;12.60;67.70;;;;;;4880636;29;20514;-62
2024/03/25 16:07:25;;;;;;;0.83;0.83;;;12.60;69.10;;;;;;4880642;29;20494;-63
2024/03/25 16:09:51;;;;;;;0.30;0.30;;;12.60;69.70;;;;;;4879654;29;20636;-60
2024/03/25 16:12:16;;;;;;;0.30;0.30;;;12.50;69.90;;;;;;4880761;29;20291;-61
2024/03/25 16:14:43;;;;;;;0.30;0.30;;;12.50;70.20;;;;;;4880581;29;20633;-61
2024/03/25 16:17:12;;;;;;;0.30;0.30;;;12.50;69.90;;;;;;4880668;29;20289;-63
2024/03/25 16:19:38;;;;;;;0.60;0.60;;;12.40;69.40;;;;;;4880595;29;20415;-61
2024/03/25 16:22:03;;;;;;;0.30;0.20;;;12.40;68.70;;;;;;4880588;29;20463;-61
2024/03/25 16:24:29;;;;;;;0.30;0.30;;;12.40;67.30;;;;;;4880437;29;20430;-61
2024/03/25 16:26:55;;;;;;;0.30;0.30;;;12.40;65.80;;;;;;4879103;29;20680;-63
2024/03/25 16:29:20;;;;;;;0.40;0.40;;;12.30;65.40;;;;;;4880822;29;20187;-63
2024/03/25 16:31:46;;;;;;;0.30;0.30;;;12.30;65.20;;;;;;4881677;29;20188;-60
2024/03/25 16:34:12;;;;;;;0.40;0.40;;;12.30;66.50;;;;;;4881667;29;20570;-63
2024/03/25 16:36:38;;;;;;;0.30;0.30;;;12.20;67.30;;;;;;4881243;29;20206;-63
2024/03/25 16:39:04;;;;;;;0.33;0.33;;;12.20;67.30;;;;;;4881293;29;20791;-62
2024/03/25 16:41:30;;;;;;;0.60;0.60;;;12.10;66.60;;;;;;4880911;29;20468;-63
2024/03/25 16:43:56;;;;;;;0.30;0.30;;;12.10;67.40;;;;;;4881356;29;20422;-59
2024/03/25 16:46:21;;;;;;;0.30;0.30;;;12.00;67.10;;;;;;4880761;29;20506;-62
2024/03/25 16:48:47;;;;;;;0.30;0.30;;;12.00;67.10;;;;;;4880636;29;20186;-61
2024/03/25 16:51:12;;;;;;;0.30;0.30;;;12.00;66.40;;;;;;4881409;29;20561;-62
2024/03/25 16:53:38;;;;;;;0.30;0.30;;;12.00;65.40;;;;;;4880540;29;20181;-61
2024/03/25 16:56:06;;;;;;;0.40;0.40;;;11.90;66.50;;;;;;4880702;29;20276;-62
2024/03/25 16:58:32;;;;;;;0.50;0.50;;;11.90;65.00;;;;;;4881134;29;20190;-63
2024/03/25 17:00:58;;;;;;;0.30;0.30;;;11.80;64.30;;;;;;4881664;29;20516;-62
2024/03/25 17:03:23;;;;;;;0.30;0.30;;;11.80;64.10;;;;;;4879878;29;20418;-61
2024/03/25 17:05:52;;;;;;;0.40;0.40;;;11.70;64.20;;;;;;4880488;29;20680;-63
2024/03/25 17:08:18;;;;;;;0.30;0.30;;;11.70;65.00;;;;;;4880317;29;20225;-59
2024/03/25 17:10:45;;;;;;;0.30;0.30;;;11.60;65.40;;;;;;4880167;29;20434;-63
2024/03/25 17:13:11;;;;;;;0.30;0.30;;;11.60;65.90;;;;;;4879931;29;20199;-63
2024/03/25 17:15:36;;;;;;;0.30;0.30;;;11.50;65.30;;;;;;4878114;29;20437;-63
2024/03/25 17:18:07;;;;;;;0.30;0.30;;;11.50;65.60;;;;;;4879799;29;20659;-61
2024/03/25 17:20:33;;;;;;;0.30;0.30;;;11.40;65.80;;;;;;4879500;29;20209;-61
2024/03/25 17:22:59;;;;;;;0.30;0.30;;;11.30;66.20;;;;;;4878490;29;20203;-58
2024/03/25 17:25:24;;;;;;;0.40;0.40;;;11.30;66.20;;;;;;4879282;29;20414;-64
2024/03/25 17:27:50;;;;;;;0.30;0.30;;;11.20;66.20;;;;;;4879607;29;20208;-59
2024/03/25 17:30:16;;;;;;;0.30;0.30;;;11.20;67.00;;;;;;4878817;29;20180;-61
2024/03/25 17:32:41;;;;;;;0.30;0.30;;;11.10;66.40;;;;;;4879557;29;20181;-61
2024/03/25 17:35:07;;;;;;;0.50;0.40;;;11.00;67.30;;;;;;4879266;29;20655;-60
2024/03/25 17:37:33;;;;;;;0.30;0.30;;;11.00;67.70;;;;;;4879666;29;20646;-61
2024/03/25 17:39:58;;;;;;;0.30;0.30;;;10.80;67.90;;;;;;4879187;29;20428;-61
2024/03/25 17:42:24;;;;;;;0.33;0.33;;;10.80;68.00;;;;;;4879322;29;20203;-61
2024/03/25 17:44:49;;;;;;;0.30;0.30;;;10.70;68.40;;;;;;4879094;29;20172;-59
2024/03/25 17:47:16;;;;;;;0.30;0.30;;;10.60;69.00;;;;;;4879324;29;20199;-61
2024/03/25 17:49:41;;;;;;;0.40;0.40;;;10.50;69.00;;;;;;4879260;29;20412;-61
2024/03/25 17:52:07;;;;;;;0.30;0.30;;;10.50;69.20;;;;;;4879409;29;20180;-62
2024/03/25 17:54:34;;;;;;;0.33;0.33;;;10.40;69.30;;;;;;4878971;29;20195;-60
2024/03/25 17:56:59;;;;;;;0.30;0.30;;;10.40;69.10;;;;;;4877776;29;20695;-60
2024/03/25 17:59:25;;;;;;;0.30;0.30;;;10.30;69.00;;;;;;4879388;29;20184;-62